sensor_id;sensor_type;location;lat;lon;timestamp;temperature;humidity
66096;SHT31;53861;53.422;14.530;2023-04-29T00:01:56;11.46;80.10
66096;SHT31;53861;53.422;14.530;2023-04-29T00:04:23;11.27;80.56
66096;SHT31;53861;53.422;14.530;2023-04-29T00:06:52;11.26;80.78
66096;SHT31;53861;53.422;14.530;2023-04-29T00:09:24;11.24;82.29
66096;SHT31;53861;53.422;14.530;2023-04-29T00:11:51;11.16;80.56
66096;SHT31;53861;53.422;14.530;2023-04-29T00:14:18;11.15;80.97
66096;SHT31;53861;53.422;14.530;2023-04-29T00:16:45;11.10;80.29
66096;SHT31;53861;53.422;14.530;2023-04-29T00:19:13;11.10;80.04
66096;SHT31;53861;53.422;14.530;2023-04-29T00:21:43;11.16;80.02
66096;SHT31;53861;53.422;14.530;2023-04-29T00:24:11;11.23;79.96
66096;SHT31;53861;53.422;14.530;2023-04-29T00:26:39;11.33;79.67
66096;SHT31;53861;53.422;14.530;2023-04-29T00:29:07;11.29;79.50
66096;SHT31;53861;53.422;14.530;2023-04-29T00:31:34;11.27;80.20
66096;SHT31;53861;53.422;14.530;2023-04-29T00:34:02;11.19;79.82
66096;SHT31;53861;53.422;14.530;2023-04-29T00:36:29;11.19;79.88
66096;SHT31;53861;53.422;14.530;2023-04-29T00:38:57;11.23;80.59
66096;SHT31;53861;53.422;14.530;2023-04-29T00:41:26;11.30;80.40
66096;SHT31;53861;53.422;14.530;2023-04-29T00:43:53;11.37;79.89
66096;SHT31;53861;53.422;14.530;2023-04-29T00:46:20;11.22;80.24
66096;SHT31;53861;53.422;14.530;2023-04-29T00:48:48;11.29;79.75
66096;SHT31;53861;53.422;14.530;2023-04-29T00:51:16;11.29;79.06
66096;SHT31;53861;53.422;14.530;2023-04-29T00:53:45;11.27;80.23
66096;SHT31;53861;53.422;14.530;2023-04-29T00:56:13;11.24;80.01
66096;SHT31;53861;53.422;14.530;2023-04-29T00:58:42;11.24;80.47
66096;SHT31;53861;53.422;14.530;2023-04-29T01:01:15;11.27;79.47
66096;SHT31;53861;53.422;14.530;2023-04-29T01:03:42;11.30;79.07
66096;SHT31;53861;53.422;14.530;2023-04-29T01:06:19;11.09;79.23
66096;SHT31;53861;53.422;14.530;2023-04-29T01:09:02;11.20;79.63
66096;SHT31;53861;53.422;14.530;2023-04-29T01:11:34;11.10;79.71
66096;SHT31;53861;53.422;14.530;2023-04-29T01:14:06;11.10;79.86
66096;SHT31;53861;53.422;14.530;2023-04-29T01:16:43;11.15;79.81
66096;SHT31;53861;53.422;14.530;2023-04-29T01:21:58;11.13;79.53
66096;SHT31;53861;53.422;14.530;2023-04-29T01:24:26;11.08;80.53
66096;SHT31;53861;53.422;14.530;2023-04-29T01:26:57;11.05;80.49
66096;SHT31;53861;53.422;14.530;2023-04-29T01:29:34;11.06;80.91
66096;SHT31;53861;53.422;14.530;2023-04-29T01:32:05;10.93;82.27
66096;SHT31;53861;53.422;14.530;2023-04-29T01:34:41;10.71;83.06
66096;SHT31;53861;53.422;14.530;2023-04-29T01:37:15;10.76;83.63
66096;SHT31;53861;53.422;14.530;2023-04-29T01:39:55;10.73;83.99
66096;SHT31;53861;53.422;14.530;2023-04-29T01:42:29;10.91;83.80
66096;SHT31;53861;53.422;14.530;2023-04-29T01:45:04;10.86;83.52
66096;SHT31;53861;53.422;14.530;2023-04-29T01:47:32;10.76;84.96
66096;SHT31;53861;53.422;14.530;2023-04-29T01:49:59;10.93;83.86
66096;SHT31;53861;53.422;14.530;2023-04-29T01:52:27;10.98;83.23
66096;SHT31;53861;53.422;14.530;2023-04-29T01:54:56;10.95;83.67
66096;SHT31;53861;53.422;14.530;2023-04-29T01:57:23;10.78;84.08
66096;SHT31;53861;53.422;14.530;2023-04-29T01:59:50;10.62;84.23
66096;SHT31;53861;53.422;14.530;2023-04-29T02:02:17;10.61;85.12
66096;SHT31;53861;53.422;14.530;2023-04-29T02:04:46;10.48;84.68
66096;SHT31;53861;53.422;14.530;2023-04-29T02:07:14;10.47;85.56
66096;SHT31;53861;53.422;14.530;2023-04-29T02:09:41;10.41;85.71
66096;SHT31;53861;53.422;14.530;2023-04-29T02:12:10;10.51;85.69
66096;SHT31;53861;53.422;14.530;2023-04-29T02:14:37;10.64;84.89
66096;SHT31;53861;53.422;14.530;2023-04-29T02:17:07;10.57;84.46
66096;SHT31;53861;53.422;14.530;2023-04-29T02:19:35;10.64;85.04
66096;SHT31;53861;53.422;14.530;2023-04-29T02:22:02;10.59;85.11
66096;SHT31;53861;53.422;14.530;2023-04-29T02:24:30;10.54;84.12
66096;SHT31;53861;53.422;14.530;2023-04-29T02:26:57;10.54;84.06
66096;SHT31;53861;53.422;14.530;2023-04-29T02:29:26;10.62;84.14
66096;SHT31;53861;53.422;14.530;2023-04-29T02:31:55;10.47;85.53
66096;SHT31;53861;53.422;14.530;2023-04-29T02:34:23;10.35;84.74
66096;SHT31;53861;53.422;14.530;2023-04-29T02:36:50;10.10;85.60
66096;SHT31;53861;53.422;14.530;2023-04-29T02:39:18;10.14;85.05
66096;SHT31;53861;53.422;14.530;2023-04-29T02:41:45;10.21;85.61
66096;SHT31;53861;53.422;14.530;2023-04-29T02:44:13;10.34;85.22
66096;SHT31;53861;53.422;14.530;2023-04-29T02:46:42;10.35;84.44
66096;SHT31;53861;53.422;14.530;2023-04-29T02:49:11;10.22;85.69
66096;SHT31;53861;53.422;14.530;2023-04-29T02:51:39;10.11;86.23
66096;SHT31;53861;53.422;14.530;2023-04-29T02:54:06;10.17;86.38
66096;SHT31;53861;53.422;14.530;2023-04-29T02:56:33;10.25;85.04
66096;SHT31;53861;53.422;14.530;2023-04-29T02:59:00;10.33;84.73
66096;SHT31;53861;53.422;14.530;2023-04-29T03:01:28;10.25;84.78
66096;SHT31;53861;53.422;14.530;2023-04-29T03:03:56;10.24;85.29
66096;SHT31;53861;53.422;14.530;2023-04-29T03:06:24;10.24;86.11
66096;SHT31;53861;53.422;14.530;2023-04-29T03:08:52;10.18;85.33
66096;SHT31;53861;53.422;14.530;2023-04-29T03:11:20;10.31;84.93
66096;SHT31;53861;53.422;14.530;2023-04-29T03:13:49;10.30;84.31
66096;SHT31;53861;53.422;14.530;2023-04-29T03:16:17;10.31;85.15
66096;SHT31;53861;53.422;14.530;2023-04-29T03:18:44;10.30;85.65
66096;SHT31;53861;53.422;14.530;2023-04-29T03:21:13;10.07;86.38
66096;SHT31;53861;53.422;14.530;2023-04-29T03:23:41;10.07;86.17
66096;SHT31;53861;53.422;14.530;2023-04-29T03:26:09;10.13;86.14
66096;SHT31;53861;53.422;14.530;2023-04-29T03:28:36;10.03;86.84
66096;SHT31;53861;53.422;14.530;2023-04-29T03:31:04;10.01;86.48
66096;SHT31;53861;53.422;14.530;2023-04-29T03:33:31;10.04;86.70
66096;SHT31;53861;53.422;14.530;2023-04-29T03:35:58;9.89;86.57
66096;SHT31;53861;53.422;14.530;2023-04-29T03:38:27;9.84;86.93
66096;SHT31;53861;53.422;14.530;2023-04-29T03:40:54;9.90;86.84
66096;SHT31;53861;53.422;14.530;2023-04-29T03:43:21;9.91;86.52
66096;SHT31;53861;53.422;14.530;2023-04-29T03:45:48;9.87;85.17
66096;SHT31;53861;53.422;14.530;2023-04-29T03:48:16;9.93;86.10
66096;SHT31;53861;53.422;14.530;2023-04-29T03:50:43;9.98;86.70
66096;SHT31;53861;53.422;14.530;2023-04-29T03:53:11;9.84;86.29
66096;SHT31;53861;53.422;14.530;2023-04-29T03:55:40;9.73;86.63
66096;SHT31;53861;53.422;14.530;2023-04-29T03:58:10;9.87;86.42
66096;SHT31;53861;53.422;14.530;2023-04-29T04:00:37;9.82;86.58
66096;SHT31;53861;53.422;14.530;2023-04-29T04:03:05;10.04;86.14
66096;SHT31;53861;53.422;14.530;2023-04-29T04:05:32;10.03;85.98
66096;SHT31;53861;53.422;14.530;2023-04-29T04:07:59;9.90;86.42
66096;SHT31;53861;53.422;14.530;2023-04-29T04:10:26;9.80;86.38
66096;SHT31;53861;53.422;14.530;2023-04-29T04:12:56;9.76;87.44
66096;SHT31;53861;53.422;14.530;2023-04-29T04:15:23;9.73;86.62
66096;SHT31;53861;53.422;14.530;2023-04-29T04:17:51;9.83;86.50
66096;SHT31;53861;53.422;14.530;2023-04-29T04:20:18;9.96;85.55
66096;SHT31;53861;53.422;14.530;2023-04-29T04:22:45;9.97;85.88
66096;SHT31;53861;53.422;14.530;2023-04-29T04:25:12;9.97;85.92
66096;SHT31;53861;53.422;14.530;2023-04-29T04:27:40;9.77;86.32
66096;SHT31;53861;53.422;14.530;2023-04-29T04:30:09;9.75;85.63
66096;SHT31;53861;53.422;14.530;2023-04-29T04:32:37;9.75;86.32
66096;SHT31;53861;53.422;14.530;2023-04-29T04:35:05;9.80;86.34
66096;SHT31;53861;53.422;14.530;2023-04-29T04:37:32;9.65;85.96
66096;SHT31;53861;53.422;14.530;2023-04-29T04:40:00;9.70;86.83
66096;SHT31;53861;53.422;14.530;2023-04-29T04:42:27;9.83;86.26
66096;SHT31;53861;53.422;14.530;2023-04-29T04:44:54;9.80;86.07
66096;SHT31;53861;53.422;14.530;2023-04-29T04:47:23;9.80;86.88
66096;SHT31;53861;53.422;14.530;2023-04-29T04:49:50;9.94;86.42
66096;SHT31;53861;53.422;14.530;2023-04-29T04:52:19;9.94;86.88
66096;SHT31;53861;53.422;14.530;2023-04-29T04:54:47;9.77;86.54
66096;SHT31;53861;53.422;14.530;2023-04-29T04:57:14;9.77;87.29
66096;SHT31;53861;53.422;14.530;2023-04-29T04:59:41;9.83;86.66
66096;SHT31;53861;53.422;14.530;2023-04-29T05:02:09;9.86;86.54
66096;SHT31;53861;53.422;14.530;2023-04-29T05:04:40;9.83;87.28
66096;SHT31;53861;53.422;14.530;2023-04-29T05:07:07;9.75;86.85
66096;SHT31;53861;53.422;14.530;2023-04-29T05:09:35;9.84;86.79
66096;SHT31;53861;53.422;14.530;2023-04-29T05:12:03;9.94;87.23
66096;SHT31;53861;53.422;14.530;2023-04-29T05:14:30;9.79;87.15
66096;SHT31;53861;53.422;14.530;2023-04-29T05:16:58;9.76;87.86
66096;SHT31;53861;53.422;14.530;2023-04-29T05:19:25;9.89;87.27
66096;SHT31;53861;53.422;14.530;2023-04-29T05:21:54;9.77;87.20
66096;SHT31;53861;53.422;14.530;2023-04-29T05:24:21;9.77;87.73
66096;SHT31;53861;53.422;14.530;2023-04-29T05:26:48;9.86;87.88
66096;SHT31;53861;53.422;14.530;2023-04-29T05:29:28;9.87;87.31
66096;SHT31;53861;53.422;14.530;2023-04-29T05:32:03;9.79;88.06
66096;SHT31;53861;53.422;14.530;2023-04-29T05:34:30;9.56;88.49
66096;SHT31;53861;53.422;14.530;2023-04-29T05:36:59;9.70;88.73
66096;SHT31;53861;53.422;14.530;2023-04-29T05:39:27;9.66;88.85
66096;SHT31;53861;53.422;14.530;2023-04-29T05:41:54;9.76;88.17
66096;SHT31;53861;53.422;14.530;2023-04-29T05:44:21;9.89;88.01
66096;SHT31;53861;53.422;14.530;2023-04-29T05:46:51;9.70;88.72
66096;SHT31;53861;53.422;14.530;2023-04-29T05:49:18;9.75;87.98
66096;SHT31;53861;53.422;14.530;2023-04-29T05:51:45;9.60;89.53
66096;SHT31;53861;53.422;14.530;2023-04-29T05:54:14;9.65;90.19
66096;SHT31;53861;53.422;14.530;2023-04-29T05:56:41;9.69;88.94
66096;SHT31;53861;53.422;14.530;2023-04-29T05:59:09;9.63;88.81
66096;SHT31;53861;53.422;14.530;2023-04-29T06:01:36;9.69;88.89
66096;SHT31;53861;53.422;14.530;2023-04-29T06:04:04;9.69;89.19
66096;SHT31;53861;53.422;14.530;2023-04-29T06:06:31;9.76;89.25
66096;SHT31;53861;53.422;14.530;2023-04-29T06:08:59;9.69;89.70
66096;SHT31;53861;53.422;14.530;2023-04-29T06:11:28;9.77;89.13
66096;SHT31;53861;53.422;14.530;2023-04-29T06:13:56;9.79;89.31
66096;SHT31;53861;53.422;14.530;2023-04-29T06:16:23;9.80;88.93
66096;SHT31;53861;53.422;14.530;2023-04-29T06:18:50;9.90;88.96
66096;SHT31;53861;53.422;14.530;2023-04-29T06:21:18;10.08;88.63
66096;SHT31;53861;53.422;14.530;2023-04-29T06:23:45;9.91;88.61
66096;SHT31;53861;53.422;14.530;2023-04-29T06:26:12;10.06;88.60
66096;SHT31;53861;53.422;14.530;2023-04-29T06:28:41;10.01;89.18
66096;SHT31;53861;53.422;14.530;2023-04-29T06:31:08;10.04;88.43
66096;SHT31;53861;53.422;14.530;2023-04-29T06:33:36;10.13;88.46
66096;SHT31;53861;53.422;14.530;2023-04-29T06:36:03;10.13;88.31
66096;SHT31;53861;53.422;14.530;2023-04-29T06:38:32;10.17;88.53
66096;SHT31;53861;53.422;14.530;2023-04-29T06:40:59;10.28;87.66
66096;SHT31;53861;53.422;14.530;2023-04-29T06:43:26;10.28;88.47
66096;SHT31;53861;53.422;14.530;2023-04-29T06:45:55;10.33;89.24
66096;SHT31;53861;53.422;14.530;2023-04-29T06:48:23;10.27;87.83
66096;SHT31;53861;53.422;14.530;2023-04-29T06:50:50;10.25;87.65
66096;SHT31;53861;53.422;14.530;2023-04-29T06:53:18;10.07;88.49
66096;SHT31;53861;53.422;14.530;2023-04-29T06:55:45;10.20;89.47
66096;SHT31;53861;53.422;14.530;2023-04-29T06:58:13;10.40;89.17
66096;SHT31;53861;53.422;14.530;2023-04-29T07:00:43;10.34;89.74
66096;SHT31;53861;53.422;14.530;2023-04-29T07:03:12;10.51;88.95
66096;SHT31;53861;53.422;14.530;2023-04-29T07:05:40;10.62;88.66
66096;SHT31;53861;53.422;14.530;2023-04-29T07:08:11;10.79;87.33
66096;SHT31;53861;53.422;14.530;2023-04-29T07:10:38;10.86;87.14
66096;SHT31;53861;53.422;14.530;2023-04-29T07:13:06;10.78;86.18
66096;SHT31;53861;53.422;14.530;2023-04-29T07:15:34;10.86;87.85
66096;SHT31;53861;53.422;14.530;2023-04-29T07:21:18;10.93;86.77
66096;SHT31;53861;53.422;14.530;2023-04-29T07:23:46;10.88;87.50
66096;SHT31;53861;53.422;14.530;2023-04-29T07:26:14;10.93;88.08
66096;SHT31;53861;53.422;14.530;2023-04-29T07:28:42;10.89;87.79
66096;SHT31;53861;53.422;14.530;2023-04-29T07:31:10;11.00;87.13
66096;SHT31;53861;53.422;14.530;2023-04-29T07:33:37;11.22;87.42
66096;SHT31;53861;53.422;14.530;2023-04-29T07:36:05;11.26;87.82
66096;SHT31;53861;53.422;14.530;2023-04-29T07:38:34;11.30;87.24
66096;SHT31;53861;53.422;14.530;2023-04-29T07:41:01;11.18;87.58
66096;SHT31;53861;53.422;14.530;2023-04-29T07:43:30;11.20;88.04
66096;SHT31;53861;53.422;14.530;2023-04-29T07:45:57;11.51;87.02
66096;SHT31;53861;53.422;14.530;2023-04-29T07:48:26;11.59;85.65
66096;SHT31;53861;53.422;14.530;2023-04-29T07:50:54;11.30;87.02
66096;SHT31;53861;53.422;14.530;2023-04-29T07:53:21;11.43;87.26
66096;SHT31;53861;53.422;14.530;2023-04-29T07:55:49;11.40;86.29
66096;SHT31;53861;53.422;14.530;2023-04-29T07:58:17;11.77;85.98
66096;SHT31;53861;53.422;14.530;2023-04-29T08:00:44;11.88;85.43
66096;SHT31;53861;53.422;14.530;2023-04-29T08:03:14;11.30;85.98
66096;SHT31;53861;53.422;14.530;2023-04-29T08:05:43;11.34;87.25
66096;SHT31;53861;53.422;14.530;2023-04-29T08:08:14;11.56;87.27
66096;SHT31;53861;53.422;14.530;2023-04-29T08:10:42;11.71;86.68
66096;SHT31;53861;53.422;14.530;2023-04-29T08:13:10;11.82;85.88
66096;SHT31;53861;53.422;14.530;2023-04-29T08:15:38;11.78;86.16
66096;SHT31;53861;53.422;14.530;2023-04-29T08:18:19;12.17;85.91
66096;SHT31;53861;53.422;14.530;2023-04-29T08:20:51;12.38;84.70
66096;SHT31;53861;53.422;14.530;2023-04-29T08:23:48;12.93;84.12
66096;SHT31;53861;53.422;14.530;2023-04-29T08:26:28;13.92;81.51
66096;SHT31;53861;53.422;14.530;2023-04-29T08:28:57;14.09;80.30
66096;SHT31;53861;53.422;14.530;2023-04-29T08:31:30;13.82;80.74
66096;SHT31;53861;53.422;14.530;2023-04-29T08:34:08;13.20;82.30
66096;SHT31;53861;53.422;14.530;2023-04-29T08:36:36;13.41;83.13
66096;SHT31;53861;53.422;14.530;2023-04-29T08:39:03;13.62;81.68
66096;SHT31;53861;53.422;14.530;2023-04-29T08:41:31;13.64;79.75
66096;SHT31;53861;53.422;14.530;2023-04-29T08:44:00;13.58;78.48
66096;SHT31;53861;53.422;14.530;2023-04-29T08:46:27;13.31;80.95
66096;SHT31;53861;53.422;14.530;2023-04-29T08:48:55;13.16;82.85
66096;SHT31;53861;53.422;14.530;2023-04-29T08:51:25;12.97;82.81
66096;SHT31;53861;53.422;14.530;2023-04-29T08:54:00;12.99;83.34
66096;SHT31;53861;53.422;14.530;2023-04-29T08:56:29;13.17;82.34
66096;SHT31;53861;53.422;14.530;2023-04-29T08:59:02;13.10;82.80
66096;SHT31;53861;53.422;14.530;2023-04-29T09:01:34;13.45;80.18
66096;SHT31;53861;53.422;14.530;2023-04-29T09:04:08;13.00;82.39
66096;SHT31;53861;53.422;14.530;2023-04-29T09:06:40;12.66;82.88
66096;SHT31;53861;53.422;14.530;2023-04-29T09:09:10;12.84;82.52
66096;SHT31;53861;53.422;14.530;2023-04-29T09:11:39;12.83;82.74
66096;SHT31;53861;53.422;14.530;2023-04-29T09:14:08;12.87;82.50
66096;SHT31;53861;53.422;14.530;2023-04-29T09:16:35;12.87;81.75
66096;SHT31;53861;53.422;14.530;2023-04-29T09:19:23;12.62;82.08
66096;SHT31;53861;53.422;14.530;2023-04-29T09:21:53;12.79;84.10
66096;SHT31;53861;53.422;14.530;2023-04-29T09:24:29;12.72;82.91
66096;SHT31;53861;53.422;14.530;2023-04-29T09:27:00;12.94;83.96
66096;SHT31;53861;53.422;14.530;2023-04-29T09:29:29;12.70;83.24
66096;SHT31;53861;53.422;14.530;2023-04-29T09:31:59;12.67;83.41
66096;SHT31;53861;53.422;14.530;2023-04-29T09:34:30;12.43;83.81
66096;SHT31;53861;53.422;14.530;2023-04-29T09:37:00;12.53;82.90
66096;SHT31;53861;53.422;14.530;2023-04-29T09:39:37;12.66;83.82
66096;SHT31;53861;53.422;14.530;2023-04-29T09:42:05;12.65;83.14
66096;SHT31;53861;53.422;14.530;2023-04-29T09:44:35;12.52;82.71
66096;SHT31;53861;53.422;14.530;2023-04-29T09:47:05;12.66;82.45
66096;SHT31;53861;53.422;14.530;2023-04-29T09:49:34;12.63;82.36
66096;SHT31;53861;53.422;14.530;2023-04-29T09:52:04;12.84;82.74
66096;SHT31;53861;53.422;14.530;2023-04-29T09:54:34;13.04;80.76
66096;SHT31;53861;53.422;14.530;2023-04-29T09:57:05;13.33;81.89
66096;SHT31;53861;53.422;14.530;2023-04-29T09:59:36;13.37;79.21
66096;SHT31;53861;53.422;14.530;2023-04-29T10:02:09;13.54;79.31
66096;SHT31;53861;53.422;14.530;2023-04-29T10:04:40;13.85;77.37
66096;SHT31;53861;53.422;14.530;2023-04-29T10:07:13;14.04;76.21
66096;SHT31;53861;53.422;14.530;2023-04-29T10:09:40;13.89;76.30
66096;SHT31;53861;53.422;14.530;2023-04-29T10:12:10;13.85;76.83
66096;SHT31;53861;53.422;14.530;2023-04-29T10:14:46;13.98;77.01
66096;SHT31;53861;53.422;14.530;2023-04-29T10:17:17;13.75;76.36
66096;SHT31;53861;53.422;14.530;2023-04-29T10:19:46;13.45;77.83
66096;SHT31;53861;53.422;14.530;2023-04-29T10:22:21;13.65;78.48
66096;SHT31;53861;53.422;14.530;2023-04-29T10:24:52;13.78;76.72
66096;SHT31;53861;53.422;14.530;2023-04-29T10:27:21;13.94;76.58
66096;SHT31;53861;53.422;14.530;2023-04-29T10:29:51;14.04;75.60
66096;SHT31;53861;53.422;14.530;2023-04-29T10:32:20;13.64;76.57
66096;SHT31;53861;53.422;14.530;2023-04-29T10:34:49;13.74;76.25
66096;SHT31;53861;53.422;14.530;2023-04-29T10:37:19;13.92;76.76
66096;SHT31;53861;53.422;14.530;2023-04-29T10:39:51;13.90;75.65
66096;SHT31;53861;53.422;14.530;2023-04-29T10:42:30;13.75;76.94
66096;SHT31;53861;53.422;14.530;2023-04-29T10:45:20;13.95;75.14
66096;SHT31;53861;53.422;14.530;2023-04-29T10:48:13;13.75;75.78
66096;SHT31;53861;53.422;14.530;2023-04-29T10:51:01;13.82;74.80
66096;SHT31;53861;53.422;14.530;2023-04-29T10:53:35;13.99;75.37
66096;SHT31;53861;53.422;14.530;2023-04-29T10:56:08;13.98;74.39
66096;SHT31;53861;53.422;14.530;2023-04-29T10:58:41;14.12;73.95
66096;SHT31;53861;53.422;14.530;2023-04-29T11:01:39;13.98;74.88
66096;SHT31;53861;53.422;14.530;2023-04-29T11:04:06;14.10;73.57
66096;SHT31;53861;53.422;14.530;2023-04-29T11:06:43;14.10;71.99
66096;SHT31;53861;53.422;14.530;2023-04-29T11:09:13;14.19;72.55
66096;SHT31;53861;53.422;14.530;2023-04-29T11:11:58;14.61;71.19
66096;SHT31;53861;53.422;14.530;2023-04-29T11:14:33;14.92;70.46
66096;SHT31;53861;53.422;14.530;2023-04-29T11:17:11;14.85;70.44
66096;SHT31;53861;53.422;14.530;2023-04-29T11:19:41;15.46;69.31
66096;SHT31;53861;53.422;14.530;2023-04-29T11:22:30;15.44;68.35
66096;SHT31;53861;53.422;14.530;2023-04-29T11:25:03;15.15;69.00
66096;SHT31;53861;53.422;14.530;2023-04-29T11:27:35;14.80;70.97
66096;SHT31;53861;53.422;14.530;2023-04-29T11:30:06;14.80;69.79
66096;SHT31;53861;53.422;14.530;2023-04-29T11:32:36;14.76;71.39
66096;SHT31;53861;53.422;14.530;2023-04-29T11:35:08;14.88;68.43
66096;SHT31;53861;53.422;14.530;2023-04-29T11:37:38;14.44;68.65
66096;SHT31;53861;53.422;14.530;2023-04-29T11:40:07;14.67;67.71
66096;SHT31;53861;53.422;14.530;2023-04-29T11:42:35;14.71;67.09
66096;SHT31;53861;53.422;14.530;2023-04-29T11:45:03;14.94;67.44
66096;SHT31;53861;53.422;14.530;2023-04-29T11:47:32;15.38;66.85
66096;SHT31;53861;53.422;14.530;2023-04-29T11:50:06;15.58;67.18
66096;SHT31;53861;53.422;14.530;2023-04-29T11:52:38;16.00;65.55
66096;SHT31;53861;53.422;14.530;2023-04-29T11:55:27;16.10;65.74
66096;SHT31;53861;53.422;14.530;2023-04-29T11:57:54;16.21;64.52
66096;SHT31;53861;53.422;14.530;2023-04-29T12:00:23;16.30;63.55
66096;SHT31;53861;53.422;14.530;2023-04-29T12:02:50;16.06;64.50
66096;SHT31;53861;53.422;14.530;2023-04-29T12:05:19;15.97;63.47
66096;SHT31;53861;53.422;14.530;2023-04-29T12:07:48;15.65;64.22
66096;SHT31;53861;53.422;14.530;2023-04-29T12:10:18;15.07;63.77
66096;SHT31;53861;53.422;14.530;2023-04-29T12:12:46;14.60;64.60
66096;SHT31;53861;53.422;14.530;2023-04-29T12:15:14;14.29;64.83
66096;SHT31;53861;53.422;14.530;2023-04-29T12:17:42;13.48;66.81
66096;SHT31;53861;53.422;14.530;2023-04-29T12:20:16;13.38;67.74
66096;SHT31;53861;53.422;14.530;2023-04-29T12:22:48;12.82;69.20
66096;SHT31;53861;53.422;14.530;2023-04-29T12:25:24;12.86;69.49
66096;SHT31;53861;53.422;14.530;2023-04-29T12:27:58;12.46;71.75
66096;SHT31;53861;53.422;14.530;2023-04-29T12:30:26;12.41;70.30
66096;SHT31;53861;53.422;14.530;2023-04-29T12:32:59;12.55;69.94
66096;SHT31;53861;53.422;14.530;2023-04-29T12:35:26;12.59;70.16
66096;SHT31;53861;53.422;14.530;2023-04-29T12:37:57;12.67;70.90
66096;SHT31;53861;53.422;14.530;2023-04-29T12:40:28;12.77;70.78
66096;SHT31;53861;53.422;14.530;2023-04-29T12:43:06;12.86;71.33
66096;SHT31;53861;53.422;14.530;2023-04-29T12:46:00;13.03;70.59
66096;SHT31;53861;53.422;14.530;2023-04-29T12:48:31;12.97;71.75
66096;SHT31;53861;53.422;14.530;2023-04-29T12:51:00;13.20;70.38
66096;SHT31;53861;53.422;14.530;2023-04-29T12:53:30;13.11;70.72
66096;SHT31;53861;53.422;14.530;2023-04-29T12:55:57;13.16;70.91
66096;SHT31;53861;53.422;14.530;2023-04-29T12:58:28;13.04;71.53
66096;SHT31;53861;53.422;14.530;2023-04-29T13:00:57;13.11;72.21
66096;SHT31;53861;53.422;14.530;2023-04-29T13:03:24;13.26;71.13
66096;SHT31;53861;53.422;14.530;2023-04-29T13:05:55;13.17;71.68
66096;SHT31;53861;53.422;14.530;2023-04-29T13:08:23;13.51;71.43
66096;SHT31;53861;53.422;14.530;2023-04-29T13:10:52;13.36;71.46
66096;SHT31;53861;53.422;14.530;2023-04-29T13:13:19;13.55;71.89
66096;SHT31;53861;53.422;14.530;2023-04-29T13:15:47;13.83;70.07
66096;SHT31;53861;53.422;14.530;2023-04-29T13:18:14;13.64;70.88
66096;SHT31;53861;53.422;14.530;2023-04-29T13:20:41;13.81;70.80
66096;SHT31;53861;53.422;14.530;2023-04-29T13:23:09;13.95;70.00
66096;SHT31;53861;53.422;14.530;2023-04-29T13:25:37;14.13;69.98
66096;SHT31;53861;53.422;14.530;2023-04-29T13:28:06;14.30;69.04
66096;SHT31;53861;53.422;14.530;2023-04-29T13:30:34;14.18;68.96
66096;SHT31;53861;53.422;14.530;2023-04-29T13:33:01;14.20;69.31
66096;SHT31;53861;53.422;14.530;2023-04-29T13:35:28;14.25;68.66
66096;SHT31;53861;53.422;14.530;2023-04-29T13:37:55;13.97;68.82
66096;SHT31;53861;53.422;14.530;2023-04-29T13:40:23;13.92;68.71
66096;SHT31;53861;53.422;14.530;2023-04-29T13:42:50;13.99;69.27
66096;SHT31;53861;53.422;14.530;2023-04-29T13:45:19;14.13;69.61
66096;SHT31;53861;53.422;14.530;2023-04-29T13:47:46;14.37;69.35
66096;SHT31;53861;53.422;14.530;2023-04-29T13:50:14;14.47;68.40
66096;SHT31;53861;53.422;14.530;2023-04-29T13:52:41;14.61;67.68
66096;SHT31;53861;53.422;14.530;2023-04-29T13:55:08;14.53;68.71
66096;SHT31;53861;53.422;14.530;2023-04-29T13:57:35;14.43;68.26
66096;SHT31;53861;53.422;14.530;2023-04-29T14:00:04;14.60;68.02
66096;SHT31;53861;53.422;14.530;2023-04-29T14:02:35;14.79;67.66
66096;SHT31;53861;53.422;14.530;2023-04-29T14:05:03;14.90;67.88
66096;SHT31;53861;53.422;14.530;2023-04-29T14:07:30;14.97;67.11
66096;SHT31;53861;53.422;14.530;2023-04-29T14:09:57;14.97;67.15
66096;SHT31;53861;53.422;14.530;2023-04-29T14:12:25;14.98;67.44
66096;SHT31;53861;53.422;14.530;2023-04-29T14:14:52;15.15;67.48
66096;SHT31;53861;53.422;14.530;2023-04-29T14:17:19;15.38;66.75
66096;SHT31;53861;53.422;14.530;2023-04-29T14:19:48;15.55;65.88
66096;SHT31;53861;53.422;14.530;2023-04-29T14:22:16;15.53;66.60
66096;SHT31;53861;53.422;14.530;2023-04-29T14:24:43;15.51;66.98
66096;SHT31;53861;53.422;14.530;2023-04-29T14:27:11;15.85;65.24
66096;SHT31;53861;53.422;14.530;2023-04-29T14:29:38;16.14;65.26
66096;SHT31;53861;53.422;14.530;2023-04-29T14:32:07;16.50;63.44
66096;SHT31;53861;53.422;14.530;2023-04-29T14:34:34;16.92;63.32
66096;SHT31;53861;53.422;14.530;2023-04-29T14:37:04;16.68;61.68
66096;SHT31;53861;53.422;14.530;2023-04-29T14:39:31;16.50;62.37
66096;SHT31;53861;53.422;14.530;2023-04-29T14:42:00;16.54;62.26
66096;SHT31;53861;53.422;14.530;2023-04-29T14:44:28;16.85;63.38
66096;SHT31;53861;53.422;14.530;2023-04-29T14:46:56;16.85;62.01
66096;SHT31;53861;53.422;14.530;2023-04-29T14:49:23;17.11;60.98
66096;SHT31;53861;53.422;14.530;2023-04-29T14:51:51;17.07;62.14
66096;SHT31;53861;53.422;14.530;2023-04-29T14:54:19;16.75;64.18
66096;SHT31;53861;53.422;14.530;2023-04-29T14:56:46;16.46;63.78
66096;SHT31;53861;53.422;14.530;2023-04-29T14:59:14;16.71;61.88
66096;SHT31;53861;53.422;14.530;2023-04-29T15:01:45;17.02;61.41
66096;SHT31;53861;53.422;14.530;2023-04-29T15:04:15;16.96;60.54
66096;SHT31;53861;53.422;14.530;2023-04-29T15:06:43;17.53;61.13
66096;SHT31;53861;53.422;14.530;2023-04-29T15:09:19;17.53;59.92
66096;SHT31;53861;53.422;14.530;2023-04-29T15:11:47;17.45;59.78
66096;SHT31;53861;53.422;14.530;2023-04-29T15:14:17;17.53;59.36
66096;SHT31;53861;53.422;14.530;2023-04-29T15:16:44;17.51;58.91
66096;SHT31;53861;53.422;14.530;2023-04-29T15:19:31;17.32;59.16
66096;SHT31;53861;53.422;14.530;2023-04-29T15:22:28;17.16;59.04
66096;SHT31;53861;53.422;14.530;2023-04-29T15:24:59;16.95;56.59
66096;SHT31;53861;53.422;14.530;2023-04-29T15:27:27;16.87;55.92
66096;SHT31;53861;53.422;14.530;2023-04-29T15:29:54;16.51;56.85
66096;SHT31;53861;53.422;14.530;2023-04-29T15:32:24;16.65;57.72
66096;SHT31;53861;53.422;14.530;2023-04-29T15:34:56;16.87;55.14
66096;SHT31;53861;53.422;14.530;2023-04-29T15:37:24;16.84;54.60
66096;SHT31;53861;53.422;14.530;2023-04-29T15:39:52;16.65;56.14